sensor_id;sensor_type;location;lat;lon;timestamp;P1;durP1;ratioP1;P2;durP2;ratioP2
51270;SDS011;37744;50.960;4.136;2022-07-23T00:00:46;8.40;;;7.55;;
51270;SDS011;37744;50.960;4.136;2022-07-23T00:03:12;8.02;;;6.63;;
51270;SDS011;37744;50.960;4.136;2022-07-23T00:05:37;8.63;;;6.40;;
51270;SDS011;37744;50.960;4.136;2022-07-23T00:08:04;7.80;;;6.45;;
51270;SDS011;37744;50.960;4.136;2022-07-23T00:10:31;7.68;;;6.13;;
51270;SDS011;37744;50.960;4.136;2022-07-23T00:12:56;10.07;;;7.25;;
51270;SDS011;37744;50.960;4.136;2022-07-23T00:15:21;7.28;;;6.07;;
51270;SDS011;37744;50.960;4.136;2022-07-23T00:17:47;8.63;;;6.28;;
51270;SDS011;37744;50.960;4.136;2022-07-23T00:20:14;6.82;;;6.13;;
51270;SDS011;37744;50.960;4.136;2022-07-23T00:22:48;6.95;;;6.20;;
51270;SDS011;37744;50.960;4.136;2022-07-23T00:25:17;6.32;;;5.72;;
51270;SDS011;37744;50.960;4.136;2022-07-23T00:27:43;6.78;;;5.78;;
51270;SDS011;37744;50.960;4.136;2022-07-23T00:30:09;6.25;;;5.03;;
51270;SDS011;37744;50.960;4.136;2022-07-23T00:32:44;6.07;;;5.38;;
51270;SDS011;37744;50.960;4.136;2022-07-23T00:35:14;6.80;;;5.97;;
51270;SDS011;37744;50.960;4.136;2022-07-23T00:37:40;8.23;;;6.90;;
51270;SDS011;37744;50.960;4.136;2022-07-23T00:40:05;9.10;;;7.13;;
51270;SDS011;37744;50.960;4.136;2022-07-23T00:42:32;10.10;;;7.10;;
51270;SDS011;37744;50.960;4.136;2022-07-23T00:44:58;9.10;;;6.40;;
51270;SDS011;37744;50.960;4.136;2022-07-23T00:47:25;8.77;;;6.13;;
51270;SDS011;37744;50.960;4.136;2022-07-23T00:49:51;10.27;;;6.43;;
51270;SDS011;37744;50.960;4.136;2022-07-23T00:52:16;7.07;;;5.80;;
51270;SDS011;37744;50.960;4.136;2022-07-23T00:54:42;7.53;;;6.72;;
51270;SDS011;37744;50.960;4.136;2022-07-23T00:57:08;8.20;;;6.95;;
51270;SDS011;37744;50.960;4.136;2022-07-23T00:59:34;7.55;;;6.05;;
51270;SDS011;37744;50.960;4.136;2022-07-23T01:01:59;7.68;;;6.78;;
51270;SDS011;37744;50.960;4.136;2022-07-23T01:04:25;8.93;;;7.03;;
51270;SDS011;37744;50.960;4.136;2022-07-23T01:06:50;9.50;;;7.35;;
51270;SDS011;37744;50.960;4.136;2022-07-23T01:09:16;11.77;;;6.85;;
51270;SDS011;37744;50.960;4.136;2022-07-23T01:11:41;10.75;;;7.40;;
51270;SDS011;37744;50.960;4.136;2022-07-23T01:14:17;8.18;;;6.93;;
51270;SDS011;37744;50.960;4.136;2022-07-23T01:16:44;9.00;;;7.93;;
51270;SDS011;37744;50.960;4.136;2022-07-23T01:19:11;10.73;;;7.70;;
51270;SDS011;37744;50.960;4.136;2022-07-23T01:21:39;11.70;;;8.35;;
51270;SDS011;37744;50.960;4.136;2022-07-23T01:24:12;14.80;;;9.00;;
51270;SDS011;37744;50.960;4.136;2022-07-23T01:26:44;10.68;;;8.45;;
51270;SDS011;37744;50.960;4.136;2022-07-23T01:29:10;13.23;;;8.48;;
51270;SDS011;37744;50.960;4.136;2022-07-23T01:31:37;10.95;;;8.27;;
51270;SDS011;37744;50.960;4.136;2022-07-23T01:34:02;10.98;;;8.07;;
51270;SDS011;37744;50.960;4.136;2022-07-23T01:36:29;10.23;;;8.07;;
51270;SDS011;37744;50.960;4.136;2022-07-23T01:38:54;11.00;;;8.13;;
51270;SDS011;37744;50.960;4.136;2022-07-23T01:41:20;9.23;;;7.72;;
51270;SDS011;37744;50.960;4.136;2022-07-23T01:43:46;9.88;;;7.70;;
51270;SDS011;37744;50.960;4.136;2022-07-23T01:46:11;9.82;;;7.53;;
51270;SDS011;37744;50.960;4.136;2022-07-23T01:48:38;9.82;;;8.35;;
51270;SDS011;37744;50.960;4.136;2022-07-23T01:51:04;9.27;;;7.18;;
51270;SDS011;37744;50.960;4.136;2022-07-23T01:53:29;9.75;;;7.35;;
51270;SDS011;37744;50.960;4.136;2022-07-23T01:55:58;9.15;;;6.68;;
51270;SDS011;37744;50.960;4.136;2022-07-23T01:58:25;11.38;;;8.38;;
51270;SDS011;37744;50.960;4.136;2022-07-23T02:00:51;8.02;;;6.70;;
51270;SDS011;37744;50.960;4.136;2022-07-23T02:03:20;9.60;;;6.90;;
51270;SDS011;37744;50.960;4.136;2022-07-23T02:05:47;6.88;;;6.18;;
51270;SDS011;37744;50.960;4.136;2022-07-23T02:08:13;9.35;;;6.55;;
51270;SDS011;37744;50.960;4.136;2022-07-23T02:10:39;10.02;;;6.65;;
51270;SDS011;37744;50.960;4.136;2022-07-23T02:13:05;10.93;;;6.43;;
51270;SDS011;37744;50.960;4.136;2022-07-23T02:15:30;10.20;;;7.68;;
51270;SDS011;37744;50.960;4.136;2022-07-23T02:17:56;10.30;;;6.95;;
51270;SDS011;37744;50.960;4.136;2022-07-23T02:20:21;10.20;;;7.43;;
51270;SDS011;37744;50.960;4.136;2022-07-23T02:22:47;9.80;;;7.65;;
51270;SDS011;37744;50.960;4.136;2022-07-23T02:25:16;9.38;;;7.13;;
51270;SDS011;37744;50.960;4.136;2022-07-23T02:27:42;11.95;;;7.70;;
51270;SDS011;37744;50.960;4.136;2022-07-23T02:30:07;9.45;;;7.22;;
51270;SDS011;37744;50.960;4.136;2022-07-23T02:32:33;9.77;;;6.72;;
51270;SDS011;37744;50.960;4.136;2022-07-23T02:35:00;10.57;;;7.45;;
51270;SDS011;37744;50.960;4.136;2022-07-23T02:37:26;10.00;;;7.53;;
51270;SDS011;37744;50.960;4.136;2022-07-23T02:39:51;8.82;;;7.13;;
51270;SDS011;37744;50.960;4.136;2022-07-23T02:42:17;9.40;;;7.53;;
51270;SDS011;37744;50.960;4.136;2022-07-23T02:44:42;10.88;;;7.47;;
51270;SDS011;37744;50.960;4.136;2022-07-23T02:47:08;8.43;;;6.85;;
51270;SDS011;37744;50.960;4.136;2022-07-23T02:49:34;9.93;;;6.95;;
51270;SDS011;37744;50.960;4.136;2022-07-23T02:52:00;9.02;;;7.10;;
51270;SDS011;37744;50.960;4.136;2022-07-23T02:54:26;9.75;;;7.35;;
51270;SDS011;37744;50.960;4.136;2022-07-23T02:56:52;12.38;;;8.02;;
51270;SDS011;37744;50.960;4.136;2022-07-23T02:59:19;8.40;;;6.90;;
51270;SDS011;37744;50.960;4.136;2022-07-23T03:01:44;10.23;;;6.93;;
51270;SDS011;37744;50.960;4.136;2022-07-23T03:04:10;10.98;;;6.60;;
51270;SDS011;37744;50.960;4.136;2022-07-23T03:06:36;9.98;;;6.55;;
51270;SDS011;37744;50.960;4.136;2022-07-23T03:09:02;9.32;;;6.80;;
51270;SDS011;37744;50.960;4.136;2022-07-23T03:11:28;8.73;;;6.68;;
51270;SDS011;37744;50.960;4.136;2022-07-23T03:13:55;9.10;;;6.97;;
51270;SDS011;37744;50.960;4.136;2022-07-23T03:16:20;7.63;;;6.05;;
51270;SDS011;37744;50.960;4.136;2022-07-23T03:18:46;8.50;;;7.25;;
51270;SDS011;37744;50.960;4.136;2022-07-23T03:21:11;9.23;;;7.10;;
51270;SDS011;37744;50.960;4.136;2022-07-23T03:23:37;9.82;;;8.07;;
51270;SDS011;37744;50.960;4.136;2022-07-23T03:26:02;9.30;;;7.45;;
51270;SDS011;37744;50.960;4.136;2022-07-23T03:28:28;8.18;;;5.68;;
51270;SDS011;37744;50.960;4.136;2022-07-23T03:30:54;8.32;;;6.60;;
51270;SDS011;37744;50.960;4.136;2022-07-23T03:33:20;8.55;;;6.90;;
51270;SDS011;37744;50.960;4.136;2022-07-23T03:35:46;10.15;;;7.80;;
51270;SDS011;37744;50.960;4.136;2022-07-23T03:38:13;9.40;;;7.75;;
51270;SDS011;37744;50.960;4.136;2022-07-23T03:40:40;8.50;;;7.25;;
51270;SDS011;37744;50.960;4.136;2022-07-23T03:43:06;10.43;;;7.93;;
51270;SDS011;37744;50.960;4.136;2022-07-23T03:45:33;11.32;;;8.00;;
51270;SDS011;37744;50.960;4.136;2022-07-23T03:47:59;9.68;;;7.20;;
51270;SDS011;37744;50.960;4.136;2022-07-23T03:50:24;11.23;;;7.45;;
51270;SDS011;37744;50.960;4.136;2022-07-23T03:52:50;8.95;;;7.97;;
51270;SDS011;37744;50.960;4.136;2022-07-23T03:55:17;10.30;;;7.88;;
51270;SDS011;37744;50.960;4.136;2022-07-23T03:57:44;11.10;;;7.60;;
51270;SDS011;37744;50.960;4.136;2022-07-23T04:00:09;11.55;;;8.63;;
51270;SDS011;37744;50.960;4.136;2022-07-23T04:02:37;11.93;;;7.72;;
51270;SDS011;37744;50.960;4.136;2022-07-23T04:05:03;9.98;;;7.93;;
51270;SDS011;37744;50.960;4.136;2022-07-23T04:07:29;9.70;;;7.43;;
51270;SDS011;37744;50.960;4.136;2022-07-23T04:09:56;7.93;;;7.00;;
51270;SDS011;37744;50.960;4.136;2022-07-23T04:12:22;9.30;;;6.90;;
51270;SDS011;37744;50.960;4.136;2022-07-23T04:14:48;8.93;;;6.78;;
51270;SDS011;37744;50.960;4.136;2022-07-23T04:17:13;13.07;;;8.32;;
51270;SDS011;37744;50.960;4.136;2022-07-23T04:19:39;9.80;;;7.95;;
51270;SDS011;37744;50.960;4.136;2022-07-23T04:22:06;10.30;;;7.60;;
51270;SDS011;37744;50.960;4.136;2022-07-23T04:24:33;9.60;;;7.55;;
51270;SDS011;37744;50.960;4.136;2022-07-23T04:27:00;10.63;;;8.10;;
51270;SDS011;37744;50.960;4.136;2022-07-23T04:29:26;9.32;;;7.82;;
51270;SDS011;37744;50.960;4.136;2022-07-23T04:31:52;9.98;;;7.50;;
51270;SDS011;37744;50.960;4.136;2022-07-23T04:34:17;8.65;;;6.28;;
51270;SDS011;37744;50.960;4.136;2022-07-23T04:36:43;8.30;;;6.45;;
51270;SDS011;37744;50.960;4.136;2022-07-23T04:39:08;9.00;;;7.35;;
51270;SDS011;37744;50.960;4.136;2022-07-23T04:41:33;8.82;;;6.97;;
51270;SDS011;37744;50.960;4.136;2022-07-23T04:44:00;8.85;;;7.10;;
51270;SDS011;37744;50.960;4.136;2022-07-23T04:46:28;9.80;;;7.45;;
51270;SDS011;37744;50.960;4.136;2022-07-23T04:48:54;10.13;;;7.85;;
51270;SDS011;37744;50.960;4.136;2022-07-23T04:51:21;14.65;;;10.13;;
51270;SDS011;37744;50.960;4.136;2022-07-23T04:53:47;12.55;;;9.02;;
51270;SDS011;37744;50.960;4.136;2022-07-23T04:56:12;12.95;;;10.20;;
51270;SDS011;37744;50.960;4.136;2022-07-23T04:58:38;12.52;;;9.20;;
51270;SDS011;37744;50.960;4.136;2022-07-23T05:01:03;12.32;;;9.05;;
51270;SDS011;37744;50.960;4.136;2022-07-23T05:03:28;10.93;;;8.80;;
51270;SDS011;37744;50.960;4.136;2022-07-23T05:05:54;11.35;;;8.88;;
51270;SDS011;37744;50.960;4.136;2022-07-23T05:08:21;14.00;;;9.77;;
51270;SDS011;37744;50.960;4.136;2022-07-23T05:10:46;12.75;;;10.32;;
51270;SDS011;37744;50.960;4.136;2022-07-23T05:13:14;15.80;;;12.07;;
51270;SDS011;37744;50.960;4.136;2022-07-23T05:15:39;15.40;;;11.93;;
51270;SDS011;37744;50.960;4.136;2022-07-23T05:18:06;16.15;;;12.65;;
51270;SDS011;37744;50.960;4.136;2022-07-23T05:20:32;16.88;;;12.57;;
51270;SDS011;37744;50.960;4.136;2022-07-23T05:22:58;15.13;;;11.55;;
51270;SDS011;37744;50.960;4.136;2022-07-23T05:25:23;16.35;;;11.40;;
51270;SDS011;37744;50.960;4.136;2022-07-23T05:27:49;16.15;;;10.82;;
51270;SDS011;37744;50.960;4.136;2022-07-23T05:30:15;15.52;;;10.88;;
51270;SDS011;37744;50.960;4.136;2022-07-23T05:32:41;14.23;;;10.90;;
51270;SDS011;37744;50.960;4.136;2022-07-23T05:35:06;14.80;;;11.27;;
51270;SDS011;37744;50.960;4.136;2022-07-23T05:37:32;14.30;;;10.85;;
51270;SDS011;37744;50.960;4.136;2022-07-23T05:40:02;16.58;;;11.02;;
51270;SDS011;37744;50.960;4.136;2022-07-23T05:42:34;16.08;;;10.13;;
51270;SDS011;37744;50.960;4.136;2022-07-23T05:45:01;12.85;;;9.82;;
51270;SDS011;37744;50.960;4.136;2022-07-23T05:47:28;12.00;;;9.65;;
51270;SDS011;37744;50.960;4.136;2022-07-23T05:49:53;11.40;;;9.23;;
51270;SDS011;37744;50.960;4.136;2022-07-23T05:52:19;13.43;;;10.35;;
51270;SDS011;37744;50.960;4.136;2022-07-23T05:54:44;20.30;;;11.32;;
51270;SDS011;37744;50.960;4.136;2022-07-23T05:57:09;17.77;;;10.85;;
51270;SDS011;37744;50.960;4.136;2022-07-23T05:59:35;16.08;;;11.05;;
51270;SDS011;37744;50.960;4.136;2022-07-23T06:02:00;16.70;;;10.88;;
51270;SDS011;37744;50.960;4.136;2022-07-23T06:04:26;16.40;;;11.18;;
51270;SDS011;37744;50.960;4.136;2022-07-23T06:06:51;17.98;;;12.00;;
51270;SDS011;37744;50.960;4.136;2022-07-23T06:09:17;17.33;;;11.18;;
51270;SDS011;37744;50.960;4.136;2022-07-23T06:11:43;16.27;;;11.57;;
51270;SDS011;37744;50.960;4.136;2022-07-23T06:14:08;18.70;;;12.27;;
51270;SDS011;37744;50.960;4.136;2022-07-23T06:16:34;17.08;;;11.95;;
51270;SDS011;37744;50.960;4.136;2022-07-23T06:18:59;17.15;;;12.65;;
51270;SDS011;37744;50.960;4.136;2022-07-23T06:21:25;18.60;;;12.20;;
51270;SDS011;37744;50.960;4.136;2022-07-23T06:23:50;18.98;;;12.43;;
51270;SDS011;37744;50.960;4.136;2022-07-23T06:26:17;17.20;;;12.23;;
51270;SDS011;37744;50.960;4.136;2022-07-23T06:28:43;19.23;;;12.95;;
51270;SDS011;37744;50.960;4.136;2022-07-23T06:31:08;16.98;;;11.52;;
51270;SDS011;37744;50.960;4.136;2022-07-23T06:33:34;17.08;;;11.85;;
51270;SDS011;37744;50.960;4.136;2022-07-23T06:35:59;18.70;;;12.70;;
51270;SDS011;37744;50.960;4.136;2022-07-23T06:38:25;16.52;;;11.50;;
51270;SDS011;37744;50.960;4.136;2022-07-23T06:40:50;20.40;;;14.40;;
51270;SDS011;37744;50.960;4.136;2022-07-23T06:43:16;18.17;;;12.63;;
51270;SDS011;37744;50.960;4.136;2022-07-23T06:45:41;17.70;;;12.00;;
51270;SDS011;37744;50.960;4.136;2022-07-23T06:48:08;16.33;;;12.25;;
51270;SDS011;37744;50.960;4.136;2022-07-23T06:50:33;21.25;;;13.60;;
51270;SDS011;37744;50.960;4.136;2022-07-23T06:52:59;19.52;;;14.15;;
51270;SDS011;37744;50.960;4.136;2022-07-23T06:55:25;18.75;;;14.02;;
51270;SDS011;37744;50.960;4.136;2022-07-23T06:57:50;18.48;;;11.98;;
51270;SDS011;37744;50.960;4.136;2022-07-23T07:00:16;18.95;;;13.00;;
51270;SDS011;37744;50.960;4.136;2022-07-23T07:02:42;16.50;;;12.20;;
51270;SDS011;37744;50.960;4.136;2022-07-23T07:05:07;21.52;;;12.32;;
51270;SDS011;37744;50.960;4.136;2022-07-23T07:07:33;19.58;;;11.68;;
51270;SDS011;37744;50.960;4.136;2022-07-23T07:09:59;14.63;;;10.93;;
51270;SDS011;37744;50.960;4.136;2022-07-23T07:12:25;17.73;;;13.02;;
51270;SDS011;37744;50.960;4.136;2022-07-23T07:14:51;17.35;;;11.98;;
51270;SDS011;37744;50.960;4.136;2022-07-23T07:17:16;17.17;;;12.27;;
51270;SDS011;37744;50.960;4.136;2022-07-23T07:19:41;18.10;;;12.15;;
51270;SDS011;37744;50.960;4.136;2022-07-23T07:22:07;18.77;;;12.35;;
51270;SDS011;37744;50.960;4.136;2022-07-23T07:24:32;17.75;;;11.75;;
51270;SDS011;37744;50.960;4.136;2022-07-23T07:26:58;18.52;;;12.85;;
51270;SDS011;37744;50.960;4.136;2022-07-23T07:29:23;17.08;;;11.70;;
51270;SDS011;37744;50.960;4.136;2022-07-23T07:31:49;18.42;;;12.40;;
51270;SDS011;37744;50.960;4.136;2022-07-23T07:34:14;16.45;;;11.07;;
51270;SDS011;37744;50.960;4.136;2022-07-23T07:36:40;18.10;;;11.45;;
51270;SDS011;37744;50.960;4.136;2022-07-23T07:39:05;16.17;;;12.05;;
51270;SDS011;37744;50.960;4.136;2022-07-23T07:41:31;15.55;;;11.88;;
51270;SDS011;37744;50.960;4.136;2022-07-23T07:43:58;18.27;;;11.80;;
51270;SDS011;37744;50.960;4.136;2022-07-23T07:46:23;18.30;;;11.82;;
51270;SDS011;37744;50.960;4.136;2022-07-23T07:48:50;16.33;;;11.50;;
51270;SDS011;37744;50.960;4.136;2022-07-23T07:51:15;16.92;;;11.02;;
51270;SDS011;37744;50.960;4.136;2022-07-23T07:53:41;15.48;;;11.07;;
51270;SDS011;37744;50.960;4.136;2022-07-23T07:56:07;15.35;;;10.40;;
51270;SDS011;37744;50.960;4.136;2022-07-23T07:58:32;13.63;;;10.63;;
51270;SDS011;37744;50.960;4.136;2022-07-23T08:00:58;14.30;;;10.02;;
51270;SDS011;37744;50.960;4.136;2022-07-23T08:03:23;14.73;;;11.05;;
51270;SDS011;37744;50.960;4.136;2022-07-23T08:05:49;15.23;;;10.85;;
51270;SDS011;37744;50.960;4.136;2022-07-23T08:08:14;18.17;;;11.75;;
51270;SDS011;37744;50.960;4.136;2022-07-23T08:10:41;15.63;;;11.68;;
51270;SDS011;37744;50.960;4.136;2022-07-23T08:13:08;18.08;;;11.65;;
51270;SDS011;37744;50.960;4.136;2022-07-23T08:15:39;14.82;;;10.30;;
51270;SDS011;37744;50.960;4.136;2022-07-23T08:18:05;14.10;;;10.02;;
51270;SDS011;37744;50.960;4.136;2022-07-23T08:20:31;15.02;;;9.88;;
51270;SDS011;37744;50.960;4.136;2022-07-23T08:23:04;14.07;;;9.25;;
51270;SDS011;37744;50.960;4.136;2022-07-23T08:25:32;13.88;;;9.82;;
51270;SDS011;37744;50.960;4.136;2022-07-23T08:27:59;12.15;;;9.00;;
51270;SDS011;37744;50.960;4.136;2022-07-23T08:30:26;14.80;;;9.55;;
51270;SDS011;37744;50.960;4.136;2022-07-23T08:32:58;15.23;;;9.80;;
51270;SDS011;37744;50.960;4.136;2022-07-23T08:35:30;14.07;;;8.73;;
51270;SDS011;37744;50.960;4.136;2022-07-23T08:38:01;12.85;;;9.30;;
51270;SDS011;37744;50.960;4.136;2022-07-23T08:40:32;14.23;;;9.23;;
51270;SDS011;37744;50.960;4.136;2022-07-23T08:42:59;10.90;;;9.02;;
51270;SDS011;37744;50.960;4.136;2022-07-23T08:45:29;12.43;;;9.38;;
51270;SDS011;37744;50.960;4.136;2022-07-23T08:47:56;14.45;;;9.05;;
51270;SDS011;37744;50.960;4.136;2022-07-23T08:50:25;12.85;;;8.88;;
51270;SDS011;37744;50.960;4.136;2022-07-23T08:52:52;7.75;;;6.57;;
51270;SDS011;37744;50.960;4.136;2022-07-23T08:55:19;10.75;;;4.50;;
51270;SDS011;37744;50.960;4.136;2022-07-23T08:57:47;7.45;;;4.50;;
51270;SDS011;37744;50.960;4.136;2022-07-23T09:00:14;8.18;;;4.78;;
51270;SDS011;37744;50.960;4.136;2022-07-23T09:02:40;6.45;;;5.22;;
51270;SDS011;37744;50.960;4.136;2022-07-23T09:05:08;9.35;;;5.35;;
51270;SDS011;37744;50.960;4.136;2022-07-23T09:07:35;12.95;;;7.70;;
51270;SDS011;37744;50.960;4.136;2022-07-23T09:10:12;9.50;;;7.25;;
51270;SDS011;37744;50.960;4.136;2022-07-23T09:12:37;9.48;;;6.63;;
51270;SDS011;37744;50.960;4.136;2022-07-23T09:15:06;13.13;;;7.13;;
51270;SDS011;37744;50.960;4.136;2022-07-23T09:17:37;9.88;;;6.43;;
51270;SDS011;37744;50.960;4.136;2022-07-23T09:20:08;9.95;;;6.22;;
51270;SDS011;37744;50.960;4.136;2022-07-23T09:22:34;7.03;;;5.72;;
51270;SDS011;37744;50.960;4.136;2022-07-23T09:25:20;7.63;;;5.40;;
51270;SDS011;37744;50.960;4.136;2022-07-23T09:30:11;10.70;;;6.07;;
51270;SDS011;37744;50.960;4.136;2022-07-23T09:32:37;9.65;;;5.53;;
51270;SDS011;37744;50.960;4.136;2022-07-23T09:35:04;11.50;;;5.78;;
51270;SDS011;37744;50.960;4.136;2022-07-23T09:37:30;10.63;;;5.28;;
51270;SDS011;37744;50.960;4.136;2022-07-23T09:40:03;6.60;;;4.70;;
51270;SDS011;37744;50.960;4.136;2022-07-23T09:42:40;6.07;;;4.10;;
51270;SDS011;37744;50.960;4.136;2022-07-23T09:45:06;6.78;;;5.28;;
51270;SDS011;37744;50.960;4.136;2022-07-23T09:47:37;10.23;;;6.30;;
51270;SDS011;37744;50.960;4.136;2022-07-23T09:52:46;5.40;;;4.85;;
51270;SDS011;37744;50.960;4.136;2022-07-23T09:55:13;9.18;;;5.65;;
51270;SDS011;37744;50.960;4.136;2022-07-23T09:57:40;6.80;;;5.00;;
51270;SDS011;37744;50.960;4.136;2022-07-23T10:00:07;8.32;;;5.30;;
51270;SDS011;37744;50.960;4.136;2022-07-23T10:02:35;6.18;;;4.88;;
51270;SDS011;37744;50.960;4.136;2022-07-23T10:05:02;8.15;;;4.72;;
51270;SDS011;37744;50.960;4.136;2022-07-23T10:07:28;7.40;;;5.10;;
51270;SDS011;37744;50.960;4.136;2022-07-23T10:09:58;8.48;;;5.30;;
51270;SDS011;37744;50.960;4.136;2022-07-23T10:12:25;6.50;;;4.72;;
51270;SDS011;37744;50.960;4.136;2022-07-23T10:15:20;7.57;;;5.45;;
51270;SDS011;37744;50.960;4.136;2022-07-23T10:17:48;7.55;;;4.63;;
51270;SDS011;37744;50.960;4.136;2022-07-23T10:20:13;6.07;;;4.60;;
51270;SDS011;37744;50.960;4.136;2022-07-23T10:23:42;6.70;;;5.05;;
51270;SDS011;37744;50.960;4.136;2022-07-23T10:34:29;6.70;;;4.40;;
51270;SDS011;37744;50.960;4.136;2022-07-23T10:40:13;6.47;;;4.65;;
51270;SDS011;37744;50.960;4.136;2022-07-23T10:47:52;4.63;;;3.28;;
51270;SDS011;37744;50.960;4.136;2022-07-23T10:50:25;5.30;;;3.85;;
51270;SDS011;37744;50.960;4.136;2022-07-23T10:57:58;4.82;;;3.33;;
51270;SDS011;37744;50.960;4.136;2022-07-23T11:00:26;6.13;;;3.30;;
51270;SDS011;37744;50.960;4.136;2022-07-23T11:02:54;3.90;;;3.30;;
51270;SDS011;37744;50.960;4.136;2022-07-23T11:05:26;6.57;;;3.42;;
51270;SDS011;37744;50.960;4.136;2022-07-23T11:10:36;4.75;;;3.70;;
51270;SDS011;37744;50.960;4.136;2022-07-23T11:32:04;2.72;;;2.50;;
51270;SDS011;37744;50.960;4.136;2022-07-23T11:34:34;3.35;;;2.63;;
51270;SDS011;37744;50.960;4.136;2022-07-23T11:37:02;3.88;;;2.72;;
51270;SDS011;37744;50.960;4.136;2022-07-23T11:39:29;4.65;;;2.80;;
51270;SDS011;37744;50.960;4.136;2022-07-23T11:41:58;5.18;;;3.25;;
51270;SDS011;37744;50.960;4.136;2022-07-23T11:47:00;7.07;;;3.60;;
51270;SDS011;37744;50.960;4.136;2022-07-23T11:49:27;4.13;;;2.90;;
51270;SDS011;37744;50.960;4.136;2022-07-23T11:54:32;3.75;;;2.55;;
51270;SDS011;37744;50.960;4.136;2022-07-23T11:57:00;4.28;;;2.90;;
51270;SDS011;37744;50.960;4.136;2022-07-23T11:59:27;4.90;;;3.08;;
51270;SDS011;37744;50.960;4.136;2022-07-23T12:01:59;3.10;;;2.72;;
51270;SDS011;37744;50.960;4.136;2022-07-23T12:04:43;3.95;;;2.85;;
51270;SDS011;37744;50.960;4.136;2022-07-23T12:09:59;3.63;;;3.15;;
51270;SDS011;37744;50.960;4.136;2022-07-23T12:12:26;4.53;;;2.50;;
51270;SDS011;37744;50.960;4.136;2022-07-23T12:14:54;4.50;;;2.20;;
51270;SDS011;37744;50.960;4.136;2022-07-23T12:17:24;3.22;;;2.40;;
51270;SDS011;37744;50.960;4.136;2022-07-23T12:19:57;2.75;;;2.50;;
51270;SDS011;37744;50.960;4.136;2022-07-23T12:22:24;2.92;;;2.30;;
51270;SDS011;37744;50.960;4.136;2022-07-23T12:27:21;3.33;;;2.55;;
51270;SDS011;37744;50.960;4.136;2022-07-23T12:29:47;3.13;;;2.50;;
51270;SDS011;37744;50.960;4.136;2022-07-23T12:32:17;3.05;;;2.50;;
51270;SDS011;37744;50.960;4.136;2022-07-23T12:35:06;3.38;;;2.90;;
51270;SDS011;37744;50.960;4.136;2022-07-23T12:40:25;4.00;;;3.10;;
51270;SDS011;37744;50.960;4.136;2022-07-23T12:45:40;2.78;;;2.58;;
51270;SDS011;37744;50.960;4.136;2022-07-23T12:48:18;2.83;;;2.60;;
51270;SDS011;37744;50.960;4.136;2022-07-23T12:50:58;5.18;;;3.05;;
51270;SDS011;37744;50.960;4.136;2022-07-23T12:53:27;4.25;;;3.13;;
51270;SDS011;37744;50.960;4.136;2022-07-23T12:56:08;2.95;;;2.70;;
51270;SDS011;37744;50.960;4.136;2022-07-23T12:58:42;5.82;;;3.00;;
51270;SDS011;37744;50.960;4.136;2022-07-23T13:01:21;3.75;;;2.70;;
51270;SDS011;37744;50.960;4.136;2022-07-23T13:09:05;3.30;;;2.70;;
51270;SDS011;37744;50.960;4.136;2022-07-23T13:11:33;3.95;;;2.50;;
51270;SDS011;37744;50.960;4.136;2022-07-23T13:13:59;2.70;;;2.50;;
51270;SDS011;37744;50.960;4.136;2022-07-23T13:16:26;4.07;;;2.45;;
51270;SDS011;37744;50.960;4.136;2022-07-23T13:18:56;3.33;;;2.33;;
51270;SDS011;37744;50.960;4.136;2022-07-23T13:21:22;4.20;;;2.40;;
51270;SDS011;37744;50.960;4.136;2022-07-23T13:23:48;2.95;;;2.33;;
51270;SDS011;37744;50.960;4.136;2022-07-23T13:26:15;3.97;;;2.63;;
51270;SDS011;37744;50.960;4.136;2022-07-23T13:28:40;4.97;;;3.00;;
51270;SDS011;37744;50.960;4.136;2022-07-23T13:31:06;3.47;;;2.55;;
51270;SDS011;37744;50.960;4.136;2022-07-23T13:33:34;4.97;;;2.45;;
51270;SDS011;37744;50.960;4.136;2022-07-23T13:36:00;4.82;;;2.88;;
51270;SDS011;37744;50.960;4.136;2022-07-23T13:38:26;4.43;;;2.67;;
51270;SDS011;37744;50.960;4.136;2022-07-23T13:40:52;4.28;;;2.33;;
51270;SDS011;37744;50.960;4.136;2022-07-23T13:43:20;4.45;;;2.25;;
51270;SDS011;37744;50.960;4.136;2022-07-23T13:45:47;2.80;;;2.53;;
51270;SDS011;37744;50.960;4.136;2022-07-23T13:48:14;2.97;;;2.60;;
51270;SDS011;37744;50.960;4.136;2022-07-23T13:50:40;3.20;;;2.30;;
51270;SDS011;37744;50.960;4.136;2022-07-23T13:53:16;3.85;;;2.65;;
51270;SDS011;37744;50.960;4.136;2022-07-23T13:55:44;3.55;;;2.80;;
51270;SDS011;37744;50.960;4.136;2022-07-23T13:58:13;2.67;;;2.38;;
51270;SDS011;37744;50.960;4.136;2022-07-23T14:00:49;3.40;;;2.65;;
51270;SDS011;37744;50.960;4.136;2022-07-23T14:03:17;2.65;;;2.45;;
51270;SDS011;37744;50.960;4.136;2022-07-23T14:05:43;3.50;;;2.95;;
51270;SDS011;37744;50.960;4.136;2022-07-23T14:08:09;3.45;;;3.03;;
51270;SDS011;37744;50.960;4.136;2022-07-23T14:10:35;3.33;;;2.25;;
51270;SDS011;37744;50.960;4.136;2022-07-23T14:13:01;3.10;;;2.47;;
51270;SDS011;37744;50.960;4.136;2022-07-23T14:15:27;3.55;;;2.60;;
51270;SDS011;37744;50.960;4.136;2022-07-23T14:17:54;4.15;;;2.90;;
51270;SDS011;37744;50.960;4.136;2022-07-23T14:20:20;4.45;;;2.65;;
51270;SDS011;37744;50.960;4.136;2022-07-23T14:22:46;2.85;;;2.42;;
51270;SDS011;37744;50.960;4.136;2022-07-23T14:25:12;2.83;;;2.63;;
51270;SDS011;37744;50.960;4.136;2022-07-23T14:27:38;3.72;;;2.90;;
51270;SDS011;37744;50.960;4.136;2022-07-23T14:30:07;5.75;;;3.10;;
51270;SDS011;37744;50.960;4.136;2022-07-23T14:32:35;4.35;;;2.85;;
51270;SDS011;37744;50.960;4.136;2022-07-23T14:35:02;3.55;;;2.50;;
51270;SDS011;37744;50.960;4.136;2022-07-23T14:37:29;3.65;;;3.05;;
51270;SDS011;37744;50.960;4.136;2022-07-23T14:39:55;3.10;;;2.80;;
51270;SDS011;37744;50.960;4.136;2022-07-23T14:42:20;4.50;;;2.65;;
51270;SDS011;37744;50.960;4.136;2022-07-23T14:44:46;3.95;;;2.88;;
51270;SDS011;37744;50.960;4.136;2022-07-23T14:47:11;4.97;;;3.65;;
51270;SDS011;37744;50.960;4.136;2022-07-23T14:49:37;3.70;;;3.20;;
51270;SDS011;37744;50.960;4.136;2022-07-23T14:52:03;3.65;;;3.00;;
51270;SDS011;37744;50.960;4.136;2022-07-23T14:54:29;4.25;;;2.90;;
51270;SDS011;37744;50.960;4.136;2022-07-23T14:56:55;4.35;;;3.38;;
51270;SDS011;37744;50.960;4.136;2022-07-23T14:59:22;4.05;;;2.70;;
51270;SDS011;37744;50.960;4.136;2022-07-23T15:01:48;3.00;;;2.70;;
51270;SDS011;37744;50.960;4.136;2022-07-23T15:04:13;5.07;;;3.40;;
51270;SDS011;37744;50.960;4.136;2022-07-23T15:06:39;3.78;;;3.42;;
51270;SDS011;37744;50.960;4.136;2022-07-23T15:09:05;4.70;;;3.10;;
51270;SDS011;37744;50.960;4.136;2022-07-23T15:11:31;4.80;;;2.80;;
51270;SDS011;37744;50.960;4.136;2022-07-23T15:14:01;4.72;;;3.42;;
51270;SDS011;37744;50.960;4.136;2022-07-23T15:16:27;5.22;;;3.60;;
51270;SDS011;37744;50.960;4.136;2022-07-23T15:18:52;4.40;;;3.35;;
51270;SDS011;37744;50.960;4.136;2022-07-23T15:21:18;4.00;;;3.70;;
51270;SDS011;37744;50.960;4.136;2022-07-23T15:23:44;4.13;;;3.40;;
51270;SDS011;37744;50.960;4.136;2022-07-23T15:26:09;3.67;;;3.28;;
51270;SDS011;37744;50.960;4.136;2022-07-23T15:28:36;3.38;;;2.97;;
51270;SDS011;37744;50.960;4.136;2022-07-23T15:31:02;4.07;;;3.20;;
51270;SDS011;37744;50.960;4.136;2022-07-23T15:33:28;4.20;;;3.60;;
51270;SDS011;37744;50.960;4.136;2022-07-23T15:35:53;3.65;;;3.30;;
51270;SDS011;37744;50.960;4.136;2022-07-23T15:38:21;6.05;;;3.40;;
51270;SDS011;37744;50.960;4.136;2022-07-23T15:40:47;4.82;;;3.80;;
51270;SDS011;37744;50.960;4.136;2022-07-23T15:43:12;5.03;;;3.22;;
51270;SDS011;37744;50.960;4.136;2022-07-23T15:45:38;5.97;;;3.75;;
51270;SDS011;37744;50.960;4.136;2022-07-23T15:48:05;5.35;;;3.60;;
51270;SDS011;37744;50.960;4.136;2022-07-23T15:50:30;4.47;;;3.50;;